sensor_id;sensor_type;location;lat;lon;timestamp;temperature;humidity
19088;DHT22;9676;50.916;13.352;2022-10-18T00:00:38;18.90;78.10
19088;DHT22;9676;50.916;13.352;2022-10-18T00:03:28;18.80;78.30
19088;DHT22;9676;50.916;13.352;2022-10-18T00:06:18;18.80;79.00
19088;DHT22;9676;50.916;13.352;2022-10-18T00:09:07;18.80;78.80
19088;DHT22;9676;50.916;13.352;2022-10-18T00:11:57;18.80;79.10
19088;DHT22;9676;50.916;13.352;2022-10-18T00:14:48;18.80;79.40
19088;DHT22;9676;50.916;13.352;2022-10-18T00:17:38;18.80;79.90
19088;DHT22;9676;50.916;13.352;2022-10-18T00:20:29;18.70;79.90
19088;DHT22;9676;50.916;13.352;2022-10-18T00:23:18;18.70;80.60
19088;DHT22;9676;50.916;13.352;2022-10-18T00:26:11;18.70;80.50
19088;DHT22;9676;50.916;13.352;2022-10-18T00:29:04;18.70;81.50
19088;DHT22;9676;50.916;13.352;2022-10-18T00:31:53;18.70;81.20
19088;DHT22;9676;50.916;13.352;2022-10-18T00:34:43;18.70;81.40
19088;DHT22;9676;50.916;13.352;2022-10-18T00:37:34;18.70;81.70
19088;DHT22;9676;50.916;13.352;2022-10-18T00:40:23;18.60;82.60
19088;DHT22;9676;50.916;13.352;2022-10-18T00:43:15;18.60;82.20
19088;DHT22;9676;50.916;13.352;2022-10-18T00:46:05;18.60;83.20
19088;DHT22;9676;50.916;13.352;2022-10-18T00:48:55;18.60;82.80
19088;DHT22;9676;50.916;13.352;2022-10-18T00:51:48;18.60;83.30
19088;DHT22;9676;50.916;13.352;2022-10-18T00:54:42;18.60;84.00
19088;DHT22;9676;50.916;13.352;2022-10-18T00:57:33;18.60;84.80
19088;DHT22;9676;50.916;13.352;2022-10-18T01:00:23;18.60;84.10
19088;DHT22;9676;50.916;13.352;2022-10-18T01:03:12;18.50;84.40
19088;DHT22;9676;50.916;13.352;2022-10-18T01:06:01;18.50;84.60
19088;DHT22;9676;50.916;13.352;2022-10-18T01:09:04;18.50;85.00
19088;DHT22;9676;50.916;13.352;2022-10-18T01:12:12;18.50;87.60
19088;DHT22;9676;50.916;13.352;2022-10-18T01:15:14;18.50;88.10
19088;DHT22;9676;50.916;13.352;2022-10-18T01:18:15;18.50;87.30
19088;DHT22;9676;50.916;13.352;2022-10-18T01:21:17;18.50;87.60
19088;DHT22;9676;50.916;13.352;2022-10-18T01:24:36;18.50;88.60
19088;DHT22;9676;50.916;13.352;2022-10-18T01:27:48;18.50;89.60
19088;DHT22;9676;50.916;13.352;2022-10-18T01:30:53;18.50;89.80
19088;DHT22;9676;50.916;13.352;2022-10-18T01:33:46;18.50;90.00
19088;DHT22;9676;50.916;13.352;2022-10-18T01:36:40;18.40;88.30
19088;DHT22;9676;50.916;13.352;2022-10-18T01:39:35;18.40;89.20
19088;DHT22;9676;50.916;13.352;2022-10-18T01:42:26;18.40;90.10
19088;DHT22;9676;50.916;13.352;2022-10-18T01:45:16;18.40;89.40
19088;DHT22;9676;50.916;13.352;2022-10-18T01:48:09;18.40;89.90
19088;DHT22;9676;50.916;13.352;2022-10-18T01:50:59;18.40;90.60
19088;DHT22;9676;50.916;13.352;2022-10-18T01:53:48;18.30;90.20
19088;DHT22;9676;50.916;13.352;2022-10-18T01:56:43;18.30;90.30
19088;DHT22;9676;50.916;13.352;2022-10-18T01:59:45;18.30;91.20
19088;DHT22;9676;50.916;13.352;2022-10-18T02:02:44;18.30;91.60
19088;DHT22;9676;50.916;13.352;2022-10-18T02:05:41;18.30;91.00
19088;DHT22;9676;50.916;13.352;2022-10-18T02:08:37;18.30;91.30
19088;DHT22;9676;50.916;13.352;2022-10-18T02:11:27;18.30;91.40
19088;DHT22;9676;50.916;13.352;2022-10-18T02:14:18;18.30;91.10
19088;DHT22;9676;50.916;13.352;2022-10-18T02:17:08;18.30;91.40
19088;DHT22;9676;50.916;13.352;2022-10-18T02:20:01;18.20;91.50
19088;DHT22;9676;50.916;13.352;2022-10-18T02:22:55;18.20;91.80
19088;DHT22;9676;50.916;13.352;2022-10-18T02:25:45;18.20;92.10
19088;DHT22;9676;50.916;13.352;2022-10-18T02:28:35;18.20;91.60
19088;DHT22;9676;50.916;13.352;2022-10-18T02:31:27;18.10;91.60
19088;DHT22;9676;50.916;13.352;2022-10-18T02:34:21;18.10;92.10
19088;DHT22;9676;50.916;13.352;2022-10-18T02:37:12;18.10;92.00
19088;DHT22;9676;50.916;13.352;2022-10-18T02:40:05;18.10;91.80
19088;DHT22;9676;50.916;13.352;2022-10-18T02:42:57;18.00;92.20
19088;DHT22;9676;50.916;13.352;2022-10-18T02:45:47;18.00;92.00
19088;DHT22;9676;50.916;13.352;2022-10-18T02:48:36;18.00;91.90
19088;DHT22;9676;50.916;13.352;2022-10-18T02:51:25;17.90;92.10
19088;DHT22;9676;50.916;13.352;2022-10-18T02:54:15;17.90;92.30
19088;DHT22;9676;50.916;13.352;2022-10-18T02:57:05;17.90;92.40
19088;DHT22;9676;50.916;13.352;2022-10-18T02:59:55;17.90;92.80
19088;DHT22;9676;50.916;13.352;2022-10-18T03:02:44;17.80;92.50
19088;DHT22;9676;50.916;13.352;2022-10-18T03:05:35;17.80;92.50
19088;DHT22;9676;50.916;13.352;2022-10-18T03:08:25;17.80;92.60
19088;DHT22;9676;50.916;13.352;2022-10-18T03:11:14;17.80;92.80
19088;DHT22;9676;50.916;13.352;2022-10-18T03:14:05;17.70;92.90
19088;DHT22;9676;50.916;13.352;2022-10-18T03:16:54;17.70;93.30
19088;DHT22;9676;50.916;13.352;2022-10-18T03:19:44;17.70;93.10
19088;DHT22;9676;50.916;13.352;2022-10-18T03:22:33;17.70;93.10
19088;DHT22;9676;50.916;13.352;2022-10-18T03:25:22;17.60;93.10
19088;DHT22;9676;50.916;13.352;2022-10-18T03:28:11;17.60;93.20
19088;DHT22;9676;50.916;13.352;2022-10-18T03:31:03;17.60;93.30
19088;DHT22;9676;50.916;13.352;2022-10-18T03:33:53;17.60;94.00
19088;DHT22;9676;50.916;13.352;2022-10-18T03:36:42;17.50;93.70
19088;DHT22;9676;50.916;13.352;2022-10-18T03:39:31;17.50;94.00
19088;DHT22;9676;50.916;13.352;2022-10-18T03:42:21;17.50;94.30
19088;DHT22;9676;50.916;13.352;2022-10-18T03:45:10;17.50;94.50
19088;DHT22;9676;50.916;13.352;2022-10-18T03:48:01;17.50;94.60
19088;DHT22;9676;50.916;13.352;2022-10-18T03:50:50;17.50;95.00
19088;DHT22;9676;50.916;13.352;2022-10-18T03:53:40;17.50;94.60
19088;DHT22;9676;50.916;13.352;2022-10-18T03:56:29;17.50;94.70
19088;DHT22;9676;50.916;13.352;2022-10-18T03:59:19;17.50;94.90
19088;DHT22;9676;50.916;13.352;2022-10-18T04:02:09;17.50;95.10
19088;DHT22;9676;50.916;13.352;2022-10-18T04:05:00;17.50;95.20
19088;DHT22;9676;50.916;13.352;2022-10-18T04:07:49;17.50;95.70
19088;DHT22;9676;50.916;13.352;2022-10-18T04:10:38;17.50;95.50
19088;DHT22;9676;50.916;13.352;2022-10-18T04:13:28;17.50;95.70
19088;DHT22;9676;50.916;13.352;2022-10-18T04:16:18;17.50;95.90
19088;DHT22;9676;50.916;13.352;2022-10-18T04:19:07;17.50;96.10
19088;DHT22;9676;50.916;13.352;2022-10-18T04:21:58;17.50;96.40
19088;DHT22;9676;50.916;13.352;2022-10-18T04:24:47;17.60;97.00
19088;DHT22;9676;50.916;13.352;2022-10-18T04:27:36;17.60;97.00
19088;DHT22;9676;50.916;13.352;2022-10-18T04:30:26;17.60;97.20
19088;DHT22;9676;50.916;13.352;2022-10-18T04:33:15;17.70;97.50
19088;DHT22;9676;50.916;13.352;2022-10-18T04:36:05;17.70;97.70
19088;DHT22;9676;50.916;13.352;2022-10-18T04:38:56;17.70;97.90
19088;DHT22;9676;50.916;13.352;2022-10-18T04:41:45;17.80;98.30
19088;DHT22;9676;50.916;13.352;2022-10-18T04:44:34;17.90;98.10
19088;DHT22;9676;50.916;13.352;2022-10-18T04:47:24;17.90;98.20
19088;DHT22;9676;50.916;13.352;2022-10-18T04:50:13;17.90;98.40
19088;DHT22;9676;50.916;13.352;2022-10-18T04:53:02;18.00;98.50
19088;DHT22;9676;50.916;13.352;2022-10-18T04:55:53;18.10;98.70
19088;DHT22;9676;50.916;13.352;2022-10-18T04:58:42;18.10;99.10
19088;DHT22;9676;50.916;13.352;2022-10-18T05:01:32;18.10;98.70
19088;DHT22;9676;50.916;13.352;2022-10-18T05:04:21;18.20;98.70
19088;DHT22;9676;50.916;13.352;2022-10-18T05:07:10;18.20;98.60
19088;DHT22;9676;50.916;13.352;2022-10-18T05:10:00;18.30;98.50
19088;DHT22;9676;50.916;13.352;2022-10-18T05:12:50;18.30;98.40
19088;DHT22;9676;50.916;13.352;2022-10-18T05:15:40;18.30;98.70
19088;DHT22;9676;50.916;13.352;2022-10-18T05:18:29;18.30;98.40
19088;DHT22;9676;50.916;13.352;2022-10-18T05:21:19;18.30;98.40
19088;DHT22;9676;50.916;13.352;2022-10-18T05:24:10;18.30;98.50
19088;DHT22;9676;50.916;13.352;2022-10-18T05:26:59;18.30;98.80
19088;DHT22;9676;50.916;13.352;2022-10-18T05:29:50;18.30;98.80
19088;DHT22;9676;50.916;13.352;2022-10-18T05:32:39;18.30;99.30
19088;DHT22;9676;50.916;13.352;2022-10-18T05:35:29;18.40;99.30
19088;DHT22;9676;50.916;13.352;2022-10-18T05:38:18;18.40;99.30
19088;DHT22;9676;50.916;13.352;2022-10-18T05:41:08;18.50;99.30
19088;DHT22;9676;50.916;13.352;2022-10-18T05:43:57;18.50;99.20
19088;DHT22;9676;50.916;13.352;2022-10-18T05:46:48;18.50;99.20
19088;DHT22;9676;50.916;13.352;2022-10-18T05:49:37;18.40;99.50
19088;DHT22;9676;50.916;13.352;2022-10-18T05:52:27;18.50;99.10
19088;DHT22;9676;50.916;13.352;2022-10-18T05:55:17;18.50;98.80
19088;DHT22;9676;50.916;13.352;2022-10-18T05:58:06;18.50;98.70
19088;DHT22;9676;50.916;13.352;2022-10-18T06:00:57;18.50;98.70
19088;DHT22;9676;50.916;13.352;2022-10-18T06:03:49;18.50;99.30
19088;DHT22;9676;50.916;13.352;2022-10-18T06:06:39;18.50;99.70
19088;DHT22;9676;50.916;13.352;2022-10-18T06:09:28;18.50;99.90
19088;DHT22;9676;50.916;13.352;2022-10-18T06:12:17;18.60;99.90
19088;DHT22;9676;50.916;13.352;2022-10-18T06:15:07;18.70;99.90
19088;DHT22;9676;50.916;13.352;2022-10-18T06:17:57;18.70;99.90
19088;DHT22;9676;50.916;13.352;2022-10-18T06:20:48;18.80;99.70
19088;DHT22;9676;50.916;13.352;2022-10-18T06:23:37;18.80;99.70
19088;DHT22;9676;50.916;13.352;2022-10-18T06:26:27;18.80;99.50
19088;DHT22;9676;50.916;13.352;2022-10-18T06:29:17;18.80;99.50
19088;DHT22;9676;50.916;13.352;2022-10-18T06:32:07;18.80;99.60
19088;DHT22;9676;50.916;13.352;2022-10-18T06:34:56;18.90;99.80
19088;DHT22;9676;50.916;13.352;2022-10-18T06:37:47;18.90;99.80
19088;DHT22;9676;50.916;13.352;2022-10-18T06:40:36;18.90;99.90
19088;DHT22;9676;50.916;13.352;2022-10-18T06:43:26;19.00;99.90
19088;DHT22;9676;50.916;13.352;2022-10-18T06:46:15;19.00;99.90
19088;DHT22;9676;50.916;13.352;2022-10-18T06:49:05;19.00;99.90
19088;DHT22;9676;50.916;13.352;2022-10-18T06:51:54;19.10;99.90
19088;DHT22;9676;50.916;13.352;2022-10-18T06:54:45;19.10;99.90
19088;DHT22;9676;50.916;13.352;2022-10-18T06:57:34;19.10;99.90
19088;DHT22;9676;50.916;13.352;2022-10-18T07:00:23;19.20;99.90
19088;DHT22;9676;50.916;13.352;2022-10-18T07:03:13;19.20;99.90
19088;DHT22;9676;50.916;13.352;2022-10-18T07:06:04;19.20;99.90
19088;DHT22;9676;50.916;13.352;2022-10-18T07:08:54;19.30;99.90
19088;DHT22;9676;50.916;13.352;2022-10-18T07:11:45;19.30;99.90
19088;DHT22;9676;50.916;13.352;2022-10-18T07:14:35;19.40;99.90
19088;DHT22;9676;50.916;13.352;2022-10-18T07:17:24;19.40;99.90
19088;DHT22;9676;50.916;13.352;2022-10-18T07:20:14;19.50;99.90
19088;DHT22;9676;50.916;13.352;2022-10-18T07:23:04;19.60;99.90
19088;DHT22;9676;50.916;13.352;2022-10-18T07:25:56;19.60;99.90
19088;DHT22;9676;50.916;13.352;2022-10-18T07:28:49;19.60;99.90
19088;DHT22;9676;50.916;13.352;2022-10-18T07:31:41;19.70;99.90
19088;DHT22;9676;50.916;13.352;2022-10-18T07:34:30;19.80;99.90
19088;DHT22;9676;50.916;13.352;2022-10-18T07:37:19;19.90;99.90
19088;DHT22;9676;50.916;13.352;2022-10-18T07:40:16;20.00;99.90
19088;DHT22;9676;50.916;13.352;2022-10-18T07:43:05;20.00;99.90
19088;DHT22;9676;50.916;13.352;2022-10-18T07:46:01;20.10;99.90
19088;DHT22;9676;50.916;13.352;2022-10-18T07:48:52;20.10;99.90
19088;DHT22;9676;50.916;13.352;2022-10-18T07:51:41;20.10;99.90
19088;DHT22;9676;50.916;13.352;2022-10-18T07:54:31;20.20;99.90
19088;DHT22;9676;50.916;13.352;2022-10-18T07:57:20;20.20;99.90
19088;DHT22;9676;50.916;13.352;2022-10-18T08:00:11;20.20;99.90
19088;DHT22;9676;50.916;13.352;2022-10-18T08:03:03;20.20;99.90
19088;DHT22;9676;50.916;13.352;2022-10-18T08:05:53;20.20;99.90
19088;DHT22;9676;50.916;13.352;2022-10-18T08:08:43;20.20;99.90
19088;DHT22;9676;50.916;13.352;2022-10-18T08:11:33;20.20;99.90
19088;DHT22;9676;50.916;13.352;2022-10-18T08:14:23;20.20;99.90
19088;DHT22;9676;50.916;13.352;2022-10-18T08:17:12;20.20;99.90
19088;DHT22;9676;50.916;13.352;2022-10-18T08:20:03;20.20;99.90
19088;DHT22;9676;50.916;13.352;2022-10-18T08:23:05;20.20;99.90
19088;DHT22;9676;50.916;13.352;2022-10-18T08:25:55;20.20;99.90
19088;DHT22;9676;50.916;13.352;2022-10-18T08:28:45;20.20;99.90
19088;DHT22;9676;50.916;13.352;2022-10-18T08:31:50;20.10;99.90
19088;DHT22;9676;50.916;13.352;2022-10-18T08:34:39;20.10;99.90
19088;DHT22;9676;50.916;13.352;2022-10-18T08:37:31;20.10;99.90
19088;DHT22;9676;50.916;13.352;2022-10-18T08:40:21;20.10;99.90
19088;DHT22;9676;50.916;13.352;2022-10-18T08:43:20;20.10;99.90
19088;DHT22;9676;50.916;13.352;2022-10-18T08:46:13;20.20;99.90
19088;DHT22;9676;50.916;13.352;2022-10-18T08:49:03;20.20;99.90
19088;DHT22;9676;50.916;13.352;2022-10-18T08:51:54;20.10;99.90
19088;DHT22;9676;50.916;13.352;2022-10-18T08:54:52;20.20;99.90
19088;DHT22;9676;50.916;13.352;2022-10-18T08:57:44;20.20;99.90
19088;DHT22;9676;50.916;13.352;2022-10-18T09:00:36;20.30;99.90
19088;DHT22;9676;50.916;13.352;2022-10-18T09:03:40;20.40;99.90
19088;DHT22;9676;50.916;13.352;2022-10-18T09:06:42;20.40;99.90
19088;DHT22;9676;50.916;13.352;2022-10-18T09:09:38;20.50;99.90
19088;DHT22;9676;50.916;13.352;2022-10-18T09:16:00;20.70;99.90
19088;DHT22;9676;50.916;13.352;2022-10-18T09:18:56;20.70;99.90
19088;DHT22;9676;50.916;13.352;2022-10-18T09:21:52;20.80;99.90
19088;DHT22;9676;50.916;13.352;2022-10-18T09:24:45;21.00;99.90
19088;DHT22;9676;50.916;13.352;2022-10-18T09:27:44;21.10;99.90
19088;DHT22;9676;50.916;13.352;2022-10-18T09:30:51;21.20;99.90
19088;DHT22;9676;50.916;13.352;2022-10-18T09:33:51;21.30;99.90
19088;DHT22;9676;50.916;13.352;2022-10-18T09:36:43;21.40;99.90
19088;DHT22;9676;50.916;13.352;2022-10-18T09:39:35;21.50;99.90
19088;DHT22;9676;50.916;13.352;2022-10-18T09:42:28;21.50;99.90
19088;DHT22;9676;50.916;13.352;2022-10-18T09:45:26;21.60;99.90
19088;DHT22;9676;50.916;13.352;2022-10-18T09:48:21;21.70;99.90
19088;DHT22;9676;50.916;13.352;2022-10-18T09:51:13;21.80;99.90
19088;DHT22;9676;50.916;13.352;2022-10-18T09:54:17;21.80;99.90
19088;DHT22;9676;50.916;13.352;2022-10-18T09:57:14;22.00;99.90
19088;DHT22;9676;50.916;13.352;2022-10-18T10:00:13;22.50;99.90
19088;DHT22;9676;50.916;13.352;2022-10-18T10:03:10;23.10;99.90
19088;DHT22;9676;50.916;13.352;2022-10-18T10:06:21;23.80;99.90
19088;DHT22;9676;50.916;13.352;2022-10-18T10:09:14;24.50;99.90
19088;DHT22;9676;50.916;13.352;2022-10-18T10:12:21;25.00;99.90
19088;DHT22;9676;50.916;13.352;2022-10-18T10:15:17;25.30;99.90
19088;DHT22;9676;50.916;13.352;2022-10-18T10:18:18;25.60;99.90
19088;DHT22;9676;50.916;13.352;2022-10-18T10:21:13;25.60;98.40
19088;DHT22;9676;50.916;13.352;2022-10-18T10:24:03;25.60;96.90
19088;DHT22;9676;50.916;13.352;2022-10-18T10:27:02;25.60;96.30
19088;DHT22;9676;50.916;13.352;2022-10-18T10:29:55;25.40;94.80
19088;DHT22;9676;50.916;13.352;2022-10-18T10:32:52;25.30;94.40
19088;DHT22;9676;50.916;13.352;2022-10-18T10:35:43;25.10;93.80
19088;DHT22;9676;50.916;13.352;2022-10-18T10:38:41;24.90;93.50
19088;DHT22;9676;50.916;13.352;2022-10-18T10:41:30;24.60;93.20
19088;DHT22;9676;50.916;13.352;2022-10-18T10:44:22;24.40;93.10
19088;DHT22;9676;50.916;13.352;2022-10-18T10:47:26;24.20;93.40
19088;DHT22;9676;50.916;13.352;2022-10-18T10:50:23;23.90;94.00
19088;DHT22;9676;50.916;13.352;2022-10-18T10:53:33;23.70;93.90
19088;DHT22;9676;50.916;13.352;2022-10-18T10:56:26;23.50;94.50
19088;DHT22;9676;50.916;13.352;2022-10-18T10:59:18;23.30;93.90
19088;DHT22;9676;50.916;13.352;2022-10-18T11:02:20;23.10;94.10
19088;DHT22;9676;50.916;13.352;2022-10-18T11:05:22;22.90;95.40
19088;DHT22;9676;50.916;13.352;2022-10-18T11:08:15;22.70;95.50
19088;DHT22;9676;50.916;13.352;2022-10-18T11:11:18;22.60;95.10
19088;DHT22;9676;50.916;13.352;2022-10-18T11:14:20;22.40;95.80
19088;DHT22;9676;50.916;13.352;2022-10-18T11:17:19;22.20;95.60
19088;DHT22;9676;50.916;13.352;2022-10-18T11:20:18;22.10;95.50
19088;DHT22;9676;50.916;13.352;2022-10-18T11:23:11;21.90;95.60
19088;DHT22;9676;50.916;13.352;2022-10-18T11:29:58;21.60;96.70
19088;DHT22;9676;50.916;13.352;2022-10-18T11:32:59;21.50;96.90
19088;DHT22;9676;50.916;13.352;2022-10-18T11:36:01;21.40;96.80
19088;DHT22;9676;50.916;13.352;2022-10-18T11:38:55;21.30;97.20
19088;DHT22;9676;50.916;13.352;2022-10-18T11:41:54;21.20;97.10
19088;DHT22;9676;50.916;13.352;2022-10-18T11:44:53;21.10;97.50
19088;DHT22;9676;50.916;13.352;2022-10-18T11:47:49;21.10;97.70
19088;DHT22;9676;50.916;13.352;2022-10-18T11:50:48;21.00;97.70
19088;DHT22;9676;50.916;13.352;2022-10-18T11:53:46;21.00;98.20
19088;DHT22;9676;50.916;13.352;2022-10-18T11:56:53;21.00;98.40
19088;DHT22;9676;50.916;13.352;2022-10-18T11:59:53;20.90;98.60
19088;DHT22;9676;50.916;13.352;2022-10-18T12:03:01;20.90;98.70
19088;DHT22;9676;50.916;13.352;2022-10-18T12:06:03;20.90;98.80
19088;DHT22;9676;50.916;13.352;2022-10-18T12:08:57;20.80;98.70
19088;DHT22;9676;50.916;13.352;2022-10-18T12:11:52;20.80;98.90
19088;DHT22;9676;50.916;13.352;2022-10-18T12:14:47;20.70;99.20
19088;DHT22;9676;50.916;13.352;2022-10-18T12:17:40;20.70;99.00
19088;DHT22;9676;50.916;13.352;2022-10-18T12:20:40;20.70;99.40
19088;DHT22;9676;50.916;13.352;2022-10-18T12:23:38;20.70;99.90
19088;DHT22;9676;50.916;13.352;2022-10-18T12:26:33;20.70;99.90
19088;DHT22;9676;50.916;13.352;2022-10-18T12:29:28;20.70;99.70
19088;DHT22;9676;50.916;13.352;2022-10-18T12:32:25;20.60;99.90
19088;DHT22;9676;50.916;13.352;2022-10-18T12:35:18;20.60;99.90
19088;DHT22;9676;50.916;13.352;2022-10-18T12:38:16;20.60;99.60
19088;DHT22;9676;50.916;13.352;2022-10-18T12:41:15;20.50;99.90
19088;DHT22;9676;50.916;13.352;2022-10-18T12:44:18;20.50;99.90
19088;DHT22;9676;50.916;13.352;2022-10-18T12:47:20;20.40;99.90
19088;DHT22;9676;50.916;13.352;2022-10-18T12:50:33;20.40;99.90
19088;DHT22;9676;50.916;13.352;2022-10-18T12:53:25;20.30;99.90
19088;DHT22;9676;50.916;13.352;2022-10-18T12:56:36;20.30;99.90
19088;DHT22;9676;50.916;13.352;2022-10-18T12:59:49;20.30;99.90
19088;DHT22;9676;50.916;13.352;2022-10-18T13:02:41;20.20;99.90
19088;DHT22;9676;50.916;13.352;2022-10-18T13:05:53;20.20;99.90
19088;DHT22;9676;50.916;13.352;2022-10-18T13:08:44;20.10;99.90
19088;DHT22;9676;50.916;13.352;2022-10-18T13:11:34;20.10;99.90
19088;DHT22;9676;50.916;13.352;2022-10-18T13:14:36;20.10;99.90
19088;DHT22;9676;50.916;13.352;2022-10-18T13:17:57;20.00;99.90
19088;DHT22;9676;50.916;13.352;2022-10-18T13:20:57;20.00;99.90
19088;DHT22;9676;50.916;13.352;2022-10-18T13:24:17;20.00;99.90
19088;DHT22;9676;50.916;13.352;2022-10-18T13:27:27;19.90;99.90
19088;DHT22;9676;50.916;13.352;2022-10-18T13:30:37;19.90;99.90
19088;DHT22;9676;50.916;13.352;2022-10-18T13:33:32;19.90;99.90
19088;DHT22;9676;50.916;13.352;2022-10-18T13:36:23;19.90;99.90
19088;DHT22;9676;50.916;13.352;2022-10-18T13:39:18;19.80;99.90
19088;DHT22;9676;50.916;13.352;2022-10-18T13:42:27;19.80;99.90
19088;DHT22;9676;50.916;13.352;2022-10-18T13:45:42;19.80;99.90
19088;DHT22;9676;50.916;13.352;2022-10-18T13:48:49;19.80;99.90
19088;DHT22;9676;50.916;13.352;2022-10-18T13:51:54;19.80;99.90
19088;DHT22;9676;50.916;13.352;2022-10-18T13:55:00;19.80;99.90
19088;DHT22;9676;50.916;13.352;2022-10-18T13:58:02;19.80;99.90
19088;DHT22;9676;50.916;13.352;2022-10-18T14:01:06;19.80;99.90
19088;DHT22;9676;50.916;13.352;2022-10-18T14:04:34;19.90;99.90
19088;DHT22;9676;50.916;13.352;2022-10-18T14:07:28;19.90;99.90
19088;DHT22;9676;50.916;13.352;2022-10-18T14:10:22;19.90;99.90
19088;DHT22;9676;50.916;13.352;2022-10-18T14:13:40;19.90;99.90
19088;DHT22;9676;50.916;13.352;2022-10-18T14:16:36;20.00;99.90
19088;DHT22;9676;50.916;13.352;2022-10-18T14:19:35;20.10;99.90
19088;DHT22;9676;50.916;13.352;2022-10-18T14:22:29;20.10;99.90
19088;DHT22;9676;50.916;13.352;2022-10-18T14:25:26;20.20;99.90
19088;DHT22;9676;50.916;13.352;2022-10-18T14:28:18;20.20;99.90
19088;DHT22;9676;50.916;13.352;2022-10-18T14:31:23;20.30;99.90
19088;DHT22;9676;50.916;13.352;2022-10-18T14:34:14;20.40;99.90
19088;DHT22;9676;50.916;13.352;2022-10-18T14:37:05;20.40;99.90
19088;DHT22;9676;50.916;13.352;2022-10-18T14:39:54;20.40;99.90
19088;DHT22;9676;50.916;13.352;2022-10-18T14:42:47;20.50;99.90
19088;DHT22;9676;50.916;13.352;2022-10-18T14:45:36;20.50;99.90
19088;DHT22;9676;50.916;13.352;2022-10-18T14:48:26;20.50;99.90
19088;DHT22;9676;50.916;13.352;2022-10-18T14:51:16;20.50;99.90
19088;DHT22;9676;50.916;13.352;2022-10-18T14:54:09;20.50;99.90
19088;DHT22;9676;50.916;13.352;2022-10-18T14:57:06;20.50;99.90
19088;DHT22;9676;50.916;13.352;2022-10-18T15:00:07;20.50;99.90
19088;DHT22;9676;50.916;13.352;2022-10-18T15:03:03;20.50;99.90
19088;DHT22;9676;50.916;13.352;2022-10-18T15:05:56;20.50;99.90
19088;DHT22;9676;50.916;13.352;2022-10-18T15:08:52;20.50;99.90
19088;DHT22;9676;50.916;13.352;2022-10-18T15:11:43;20.50;99.90
19088;DHT22;9676;50.916;13.352;2022-10-18T15:14:34;20.50;99.90
19088;DHT22;9676;50.916;13.352;2022-10-18T15:17:27;20.50;99.90
19088;DHT22;9676;50.916;13.352;2022-10-18T15:20:20;20.40;99.90
19088;DHT22;9676;50.916;13.352;2022-10-18T15:23:21;20.40;99.90
19088;DHT22;9676;50.916;13.352;2022-10-18T15:26:14;20.40;99.90
19088;DHT22;9676;50.916;13.352;2022-10-18T15:29:16;20.40;99.90
19088;DHT22;9676;50.916;13.352;2022-10-18T15:32:14;20.40;99.90
19088;DHT22;9676;50.916;13.352;2022-10-18T15:35:07;20.30;99.90
19088;DHT22;9676;50.916;13.352;2022-10-18T15:38:02;20.30;99.90
19088;DHT22;9676;50.916;13.352;2022-10-18T15:44:31;20.20;99.90
19088;DHT22;9676;50.916;13.352;2022-10-18T15:47:22;20.20;99.90
19088;DHT22;9676;50.916;13.352;2022-10-18T15:50:34;20.20;99.90
19088;DHT22;9676;50.916;13.352;2022-10-18T15:53:33;20.10;99.90
19088;DHT22;9676;50.916;13.352;2022-10-18T15:56:30;20.10;99.90
19088;DHT22;9676;50.916;13.352;2022-10-18T15:59:22;20.00;99.90
19088;DHT22;9676;50.916;13.352;2022-10-18T16:02:15;20.00;99.90
19088;DHT22;9676;50.916;13.352;2022-10-18T16:05:04;20.00;99.90
19088;DHT22;9676;50.916;13.352;2022-10-18T16:07:54;19.90;99.90
19088;DHT22;9676;50.916;13.352;2022-10-18T16:10:43;19.90;99.90
19088;DHT22;9676;50.916;13.352;2022-10-18T16:13:33;19.80;99.90
19088;DHT22;9676;50.916;13.352;2022-10-18T16:16:25;19.70;99.90
19088;DHT22;9676;50.916;13.352;2022-10-18T16:19:16;19.70;99.90
19088;DHT22;9676;50.916;13.352;2022-10-18T16:22:09;19.70;99.90
19088;DHT22;9676;50.916;13.352;2022-10-18T16:25:00;19.60;99.90
19088;DHT22;9676;50.916;13.352;2022-10-18T16:27:50;19.60;99.90
19088;DHT22;9676;50.916;13.352;2022-10-18T16:30:41;19.60;99.90
19088;DHT22;9676;50.916;13.352;2022-10-18T16:33:31;19.60;99.90
19088;DHT22;9676;50.916;13.352;2022-10-18T16:36:25;19.50;99.90
19088;DHT22;9676;50.916;13.352;2022-10-18T16:39:17;19.50;99.90
19088;DHT22;9676;50.916;13.352;2022-10-18T16:42:07;19.50;99.90
19088;DHT22;9676;50.916;13.352;2022-10-18T16:44:57;19.40;99.90
19088;DHT22;9676;50.916;13.352;2022-10-18T16:47:46;19.40;99.90
19088;DHT22;9676;50.916;13.352;2022-10-18T16:50:35;19.40;99.90
19088;DHT22;9676;50.916;13.352;2022-10-18T16:53:26;19.30;99.90
19088;DHT22;9676;50.916;13.352;2022-10-18T16:56:17;19.30;99.90
19088;DHT22;9676;50.916;13.352;2022-10-18T16:59:10;19.30;99.90
19088;DHT22;9676;50.916;13.352;2022-10-18T17:02:08;19.30;99.90
19088;DHT22;9676;50.916;13.352;2022-10-18T17:04:58;19.30;99.90
19088;DHT22;9676;50.916;13.352;2022-10-18T17:07:48;19.30;99.90
19088;DHT22;9676;50.916;13.352;2022-10-18T17:10:39;19.30;99.90
19088;DHT22;9676;50.916;13.352;2022-10-18T17:13:29;19.30;99.90
19088;DHT22;9676;50.916;13.352;2022-10-18T17:16:22;19.20;99.90
19088;DHT22;9676;50.916;13.352;2022-10-18T17:19:18;19.20;99.90
19088;DHT22;9676;50.916;13.352;2022-10-18T17:22:08;19.20;99.90
19088;DHT22;9676;50.916;13.352;2022-10-18T17:24:57;19.20;99.90
19088;DHT22;9676;50.916;13.352;2022-10-18T17:27:48;19.10;99.90
19088;DHT22;9676;50.916;13.352;2022-10-18T17:30:37;19.10;99.90
19088;DHT22;9676;50.916;13.352;2022-10-18T17:33:27;19.00;99.90
19088;DHT22;9676;50.916;13.352;2022-10-18T17:36:16;19.00;99.90
19088;DHT22;9676;50.916;13.352;2022-10-18T17:39:06;18.90;99.90
19088;DHT22;9676;50.916;13.352;2022-10-18T17:41:57;18.80;99.90
19088;DHT22;9676;50.916;13.352;2022-10-18T17:44:49;18.80;99.90
19088;DHT22;9676;50.916;13.352;2022-10-18T17:47:43;18.70;99.90
19088;DHT22;9676;50.916;13.352;2022-10-18T17:50:33;18.60;99.90
19088;DHT22;9676;50.916;13.352;2022-10-18T17:53:23;18.50;99.90
19088;DHT22;9676;50.916;13.352;2022-10-18T17:56:15;18.50;99.90
19088;DHT22;9676;50.916;13.352;2022-10-18T17:59:05;18.50;99.90
19088;DHT22;9676;50.916;13.352;2022-10-18T18:01:56;18.40;99.90
19088;DHT22;9676;50.916;13.352;2022-10-18T18:04:45;18.40;99.90
19088;DHT22;9676;50.916;13.352;2022-10-18T18:07:35;18.40;99.90
19088;DHT22;9676;50.916;13.352;2022-10-18T18:10:25;18.40;99.90
19088;DHT22;9676;50.916;13.352;2022-10-18T18:13:16;18.40;99.90
19088;DHT22;9676;50.916;13.352;2022-10-18T18:16:11;18.40;99.90
19088;DHT22;9676;50.916;13.352;2022-10-18T18:19:03;18.40;99.90
19088;DHT22;9676;50.916;13.352;2022-10-18T18:21:56;18.40;99.90
19088;DHT22;9676;50.916;13.352;2022-10-18T18:24:46;18.40;99.90
19088;DHT22;9676;50.916;13.352;2022-10-18T18:27:35;18.40;99.90